Terminal Aerodrome Forecast
Issued by NWS Houston/Galveston, TX

Home | Current Version | Previous Version | Text Only | Print | Product List | Glossary On
Versions: 1 2 3 4 5 6 7 8 9 10 11 12 13 14 15 16 17 18 19 20 21 22 23 24 25
000
FTUS44 KHGX 202334
TAFCLL
TAF
KCLL 202334Z 2100/2124 15008KT P6SM FEW250
     FM210900 16006KT 6SM BR BKN015
     FM211500 17009KT P6SM BKN025
     FM212000 17008KT P6SM VCTS BKN035CB=

USA.gov is the U.S. government's official web portal to all federal, state and local government web resources and services.